createdAt,value
2019-02-20T00:01:45.661Z,0.77
2019-02-20T00:04:14.800Z,0.80
2019-02-20T00:06:44.317Z,0.90
2019-02-20T00:09:13.721Z,0.90
2019-02-20T00:11:42.944Z,0.80
2019-02-20T00:14:12.099Z,0.90
2019-02-20T00:16:41.665Z,1.20
2019-02-20T00:19:10.898Z,1.23
2019-02-20T00:21:40.380Z,0.90
2019-02-20T00:24:09.654Z,0.83
2019-02-20T00:26:38.800Z,1.37
2019-02-20T00:29:08.127Z,1.17
2019-02-20T00:31:37.249Z,1.30
2019-02-20T00:34:08.129Z,1.10
2019-02-20T00:36:37.553Z,1.27
2019-02-20T00:39:08.896Z,0.93
2019-02-20T00:41:57.348Z,1.40
2019-02-20T00:44:33.220Z,1.20
2019-02-20T00:47:33.260Z,0.93
2019-02-20T00:50:02.419Z,1.00
2019-02-20T00:52:50.137Z,1.27
2019-02-20T00:55:19.168Z,0.70
2019-02-20T00:57:48.384Z,0.70
2019-02-20T01:00:18.204Z,0.77
2019-02-20T01:02:48.033Z,0.93
2019-02-20T01:05:17.336Z,1.40
2019-02-20T01:08:05.524Z,0.70
2019-02-20T01:10:34.725Z,1.00
2019-02-20T01:13:03.794Z,0.90
2019-02-20T01:15:32.917Z,0.95
2019-02-20T01:18:01.970Z,1.20
2019-02-20T01:20:31.137Z,0.80
2019-02-20T01:23:00.527Z,1.00
2019-02-20T01:25:29.664Z,1.20
2019-02-20T01:27:58.694Z,1.10
2019-02-20T01:30:28.153Z,1.50
2019-02-20T01:32:57.205Z,1.00
2019-02-20T01:35:26.213Z,1.23
2019-02-20T01:37:55.233Z,1.05
2019-02-20T01:40:24.460Z,1.40
2019-02-20T01:42:53.534Z,1.27
2019-02-20T01:45:23.051Z,1.10
2019-02-20T01:47:52.902Z,0.80
2019-02-20T01:50:21.949Z,1.00
2019-02-20T01:52:51.092Z,1.00
2019-02-20T01:55:20.176Z,0.93
2019-02-20T01:57:49.142Z,0.80
2019-02-20T02:00:18.615Z,0.70
2019-02-20T02:02:47.755Z,1.12
2019-02-20T02:05:16.840Z,1.10
2019-02-20T02:07:46.169Z,0.80
2019-02-20T02:10:15.185Z,0.90
2019-02-20T02:12:44.289Z,0.90
2019-02-20T02:15:20.054Z,1.17
2019-02-20T02:17:44.513Z,1.00
2019-02-20T02:20:13.881Z,1.07
2019-02-20T02:22:43.529Z,0.90
2019-02-20T02:25:12.637Z,0.80
2019-02-20T02:27:42.071Z,0.87
2019-02-20T02:30:12.182Z,1.13
2019-02-20T02:32:41.358Z,1.20
2019-02-20T02:35:10.426Z,0.80
2019-02-20T02:37:39.510Z,1.42
2019-02-20T02:40:08.921Z,1.20
2019-02-20T02:42:38.097Z,1.00
2019-02-20T02:45:07.362Z,1.00
2019-02-20T02:47:36.595Z,1.15
2019-02-20T02:50:06.102Z,1.05
2019-02-20T02:52:35.596Z,1.05
2019-02-20T02:55:04.701Z,0.93
2019-02-20T02:57:33.875Z,1.07
2019-02-20T03:00:03.033Z,1.20
2019-02-20T03:02:33.804Z,0.82
2019-02-20T03:05:03.222Z,0.70
2019-02-20T03:07:32.326Z,0.90
2019-02-20T03:10:01.874Z,1.02
2019-02-20T03:12:31.377Z,1.07
2019-02-20T03:15:00.454Z,1.07
2019-02-20T03:17:29.824Z,0.80
2019-02-20T03:19:59.124Z,1.27
2019-02-20T03:22:28.708Z,1.15
2019-02-20T03:24:58.209Z,1.40
2019-02-20T03:27:27.299Z,1.00
2019-02-20T03:29:56.326Z,1.05
2019-02-20T03:32:25.704Z,1.30
2019-02-20T03:34:54.849Z,1.17
2019-02-20T03:37:27.454Z,1.20
2019-02-20T03:39:56.553Z,1.02
2019-02-20T03:42:25.661Z,1.30
2019-02-20T03:44:55.143Z,1.05
2019-02-20T03:47:26.445Z,1.30
2019-02-20T03:49:55.914Z,0.97
2019-02-20T03:52:24.987Z,1.37
2019-02-20T03:54:54.137Z,1.50
2019-02-20T03:57:23.194Z,1.00
2019-02-20T03:59:53.181Z,1.10
2019-02-20T04:02:22.471Z,1.15
2019-02-20T04:04:51.460Z,0.98
2019-02-20T04:07:20.584Z,1.00
2019-02-20T04:09:49.684Z,0.90
2019-02-20T04:12:18.812Z,1.30
2019-02-20T04:14:47.917Z,1.00
2019-02-20T04:17:17.028Z,1.17
2019-02-20T04:19:46.277Z,1.02
2019-02-20T04:22:15.836Z,1.02
2019-02-20T04:24:45.193Z,1.07
2019-02-20T04:27:14.600Z,1.45
2019-02-20T04:29:43.698Z,1.12
2019-02-20T04:32:12.845Z,0.83
2019-02-20T04:34:42.420Z,1.22
2019-02-20T04:37:11.518Z,1.12
2019-02-20T04:39:41.285Z,1.27
2019-02-20T04:42:10.373Z,1.32
2019-02-20T04:44:39.553Z,0.98
2019-02-20T04:47:08.770Z,1.07
2019-02-20T04:49:38.318Z,0.85
2019-02-20T04:52:07.448Z,0.80
2019-02-20T04:54:36.556Z,1.03
2019-02-20T04:57:06.581Z,1.10
2019-02-20T04:59:35.997Z,0.90
2019-02-20T05:02:05.142Z,1.15
2019-02-20T05:04:34.288Z,1.15
2019-02-20T05:07:03.399Z,1.20
2019-02-20T05:09:32.500Z,1.10
2019-02-20T05:12:01.699Z,1.05
2019-02-20T05:14:30.889Z,1.07
2019-02-20T05:16:59.999Z,1.10
2019-02-20T05:19:29.094Z,0.95
2019-02-20T05:21:58.229Z,0.73
2019-02-20T05:24:27.672Z,0.70
2019-02-20T05:26:56.868Z,1.37
2019-02-20T05:29:26.002Z,0.90
2019-02-20T05:31:55.179Z,1.05
2019-02-20T05:34:24.223Z,0.80
2019-02-20T05:36:53.454Z,1.10
2019-02-20T05:39:22.934Z,1.02
2019-02-20T05:41:52.397Z,1.12
2019-02-20T05:44:21.602Z,1.52
2019-02-20T05:46:51.021Z,1.12
2019-02-20T05:49:20.197Z,1.07
2019-02-20T05:51:49.974Z,0.93
2019-02-20T05:54:19.055Z,1.00
2019-02-20T05:56:48.154Z,1.20
2019-02-20T05:59:17.245Z,1.15
2019-02-20T06:01:47.049Z,1.20
2019-02-20T06:04:16.173Z,1.20
2019-02-20T06:06:46.150Z,0.90
2019-02-20T06:09:15.663Z,0.95
2019-02-20T06:11:44.790Z,1.50
2019-02-20T06:14:13.899Z,0.83
2019-02-20T06:16:42.981Z,1.25
2019-02-20T06:19:12.272Z,1.22
2019-02-20T06:21:41.489Z,1.00
2019-02-20T06:24:10.594Z,1.00
2019-02-20T06:26:39.709Z,1.30
2019-02-20T06:29:08.904Z,1.30
2019-02-20T06:31:38.384Z,0.88
2019-02-20T06:34:07.492Z,1.50
2019-02-20T06:36:36.569Z,0.87
2019-02-20T06:39:06.457Z,1.17
2019-02-20T06:41:39.121Z,1.00
2019-02-20T06:44:07.001Z,1.10
2019-02-20T06:46:36.582Z,1.30
2019-02-20T06:49:05.715Z,0.93
2019-02-20T06:51:34.760Z,1.10
2019-02-20T06:54:04.177Z,1.10
2019-02-20T06:56:37.395Z,1.02
2019-02-20T06:59:06.862Z,1.00
2019-02-20T07:01:36.333Z,1.10
2019-02-20T07:04:05.594Z,1.27
2019-02-20T07:07:11.677Z,1.30
2019-02-20T07:10:23.483Z,0.97
2019-02-20T07:13:22.138Z,1.07
2019-02-20T07:16:05.667Z,1.10
2019-02-20T07:18:59.206Z,0.90
2019-02-20T07:21:49.633Z,1.17
2019-02-20T07:24:52.928Z,1.00
2019-02-20T07:27:43.409Z,0.83
2019-02-20T07:30:12.762Z,1.20
2019-02-20T07:32:41.817Z,1.37
2019-02-20T07:35:11.662Z,1.00
2019-02-20T07:37:40.853Z,0.90
2019-02-20T07:40:12.655Z,1.00
2019-02-20T07:42:45.222Z,0.83
2019-02-20T07:45:16.645Z,0.80
2019-02-20T07:47:46.616Z,0.83
2019-02-20T07:50:18.052Z,0.93
2019-02-20T07:52:47.188Z,0.90
2019-02-20T07:55:16.365Z,0.97
2019-02-20T07:57:46.065Z,1.00
2019-02-20T08:00:16.146Z,0.90
2019-02-20T08:02:45.509Z,0.70
2019-02-20T08:05:14.790Z,0.93
2019-02-20T08:07:44.156Z,1.33
2019-02-20T08:10:13.637Z,1.10
2019-02-20T08:12:43.397Z,0.70
2019-02-20T08:15:14.245Z,1.10
2019-02-20T08:17:43.436Z,1.20
2019-02-20T08:20:13.119Z,0.90
2019-02-20T08:22:42.445Z,0.87
2019-02-20T08:25:11.840Z,0.70
2019-02-20T08:27:41.176Z,0.93
2019-02-20T08:30:15.424Z,0.87
2019-02-20T08:32:44.838Z,0.77
2019-02-20T08:35:14.328Z,0.73
2019-02-20T08:37:43.592Z,0.60
2019-02-20T08:40:14.674Z,0.63
2019-02-20T08:42:44.061Z,0.50
2019-02-20T08:45:13.981Z,0.60
2019-02-20T08:47:43.084Z,0.83
2019-02-20T08:50:12.965Z,0.73
2019-02-20T08:52:42.080Z,0.63
2019-02-20T08:55:11.561Z,0.60
2019-02-20T08:57:40.600Z,0.60
2019-02-20T09:00:11.949Z,0.70
2019-02-20T09:02:41.074Z,0.73
2019-02-20T09:05:10.919Z,0.60
2019-02-20T09:07:40.762Z,0.50
2019-02-20T09:10:10.465Z,0.50
2019-02-20T09:12:39.517Z,0.47
2019-02-20T09:15:09.000Z,0.70
2019-02-20T09:17:38.053Z,0.50
2019-02-20T09:20:08.140Z,0.70
2019-02-20T09:22:37.328Z,0.30
2019-02-20T09:25:08.145Z,0.40
2019-02-20T09:27:37.237Z,0.40
2019-02-20T09:30:07.680Z,0.30
2019-02-20T09:32:36.665Z,0.30
2019-02-20T09:35:06.076Z,0.30
2019-02-20T09:37:35.285Z,0.30
2019-02-20T09:40:05.107Z,0.20
2019-02-20T09:42:34.269Z,0.20
2019-02-20T09:45:03.371Z,0.40
2019-02-20T09:47:32.436Z,0.60
2019-02-20T09:50:01.505Z,0.27
2019-02-20T09:52:30.597Z,0.50
2019-02-20T09:54:59.693Z,0.43
2019-02-20T09:57:29.254Z,0.57
2019-02-20T09:59:58.361Z,0.50
2019-02-20T10:02:27.553Z,0.40
2019-02-20T10:04:56.657Z,0.50
2019-02-20T10:07:25.817Z,0.47
2019-02-20T10:09:54.880Z,0.40
2019-02-20T10:12:24.045Z,0.50
2019-02-20T10:14:53.165Z,0.57
2019-02-20T10:17:22.268Z,0.40
2019-02-20T10:19:51.361Z,0.40
2019-02-20T10:22:20.546Z,0.50
2019-02-20T10:24:49.718Z,0.53
2019-02-20T10:27:18.805Z,0.60
2019-02-20T10:29:48.416Z,0.50
2019-02-20T10:32:17.516Z,0.40
2019-02-20T10:34:46.900Z,0.60
2019-02-20T10:37:15.944Z,0.60
2019-02-20T10:39:45.222Z,0.53
2019-02-20T10:42:14.245Z,0.50
2019-02-20T10:44:43.375Z,0.70
2019-02-20T10:47:12.583Z,0.50
2019-02-20T10:49:41.800Z,0.70
2019-02-20T10:52:11.160Z,0.60
2019-02-20T10:54:40.703Z,0.50
2019-02-20T10:57:09.875Z,0.70
2019-02-20T10:59:38.945Z,0.47
2019-02-20T11:02:08.623Z,0.53
2019-02-20T11:04:37.725Z,0.63
2019-02-20T11:07:06.947Z,0.50
2019-02-20T11:09:36.116Z,0.53
2019-02-20T11:12:05.470Z,0.67
2019-02-20T11:14:34.804Z,0.60
2019-02-20T11:17:03.923Z,0.50
2019-02-20T11:19:33.027Z,0.50
2019-02-20T11:22:02.273Z,0.40
2019-02-20T11:24:31.369Z,0.40
2019-02-20T11:27:00.413Z,0.70
2019-02-20T11:29:29.532Z,0.63
2019-02-20T11:31:58.658Z,0.70
2019-02-20T11:34:28.076Z,0.43
2019-02-20T11:36:57.204Z,0.50
2019-02-20T11:39:26.743Z,0.60
2019-02-20T11:41:55.816Z,0.70
2019-02-20T11:44:24.873Z,0.60
2019-02-20T11:46:53.978Z,0.50
2019-02-20T11:49:23.072Z,0.40
2019-02-20T11:51:52.185Z,0.40
2019-02-20T11:54:21.672Z,0.60
2019-02-20T11:56:50.747Z,0.40
2019-02-20T11:59:19.865Z,0.67
2019-02-20T12:01:48.981Z,0.47
2019-02-20T12:04:18.585Z,0.57
2019-02-20T12:06:47.683Z,0.50
2019-02-20T12:09:16.802Z,0.50
2019-02-20T12:11:45.906Z,0.50
2019-02-20T12:14:15.104Z,0.53
2019-02-20T12:16:44.200Z,0.60
2019-02-20T12:19:13.153Z,0.50
2019-02-20T12:21:42.334Z,0.40
2019-02-20T12:24:11.977Z,0.50
2019-02-20T12:26:41.248Z,0.40
2019-02-20T12:29:11.284Z,0.50
2019-02-20T12:31:40.668Z,0.70
2019-02-20T12:34:09.652Z,0.57
2019-02-20T12:36:38.726Z,0.43
2019-02-20T12:39:07.818Z,0.53
2019-02-20T12:41:37.226Z,0.63
2019-02-20T12:44:06.397Z,0.50
2019-02-20T12:46:35.624Z,0.50
2019-02-20T12:49:04.722Z,0.50
2019-02-20T12:51:33.965Z,0.60
2019-02-20T12:54:03.147Z,0.43
2019-02-20T12:56:32.445Z,0.43
2019-02-20T12:59:07.576Z,0.50
2019-02-20T13:01:32.817Z,0.40
2019-02-20T13:04:01.993Z,0.60
2019-02-20T13:06:31.163Z,0.50
2019-02-20T13:09:00.361Z,0.60
2019-02-20T13:11:29.641Z,0.40
2019-02-20T13:13:58.807Z,0.43
2019-02-20T13:16:27.918Z,0.37
2019-02-20T13:18:57.110Z,0.40
2019-02-20T13:21:26.322Z,0.53
2019-02-20T13:23:55.878Z,0.50
2019-02-20T13:26:25.010Z,0.50
2019-02-20T13:28:54.117Z,0.30
2019-02-20T13:31:23.211Z,0.57
2019-02-20T13:33:52.353Z,0.50
2019-02-20T13:36:23.403Z,0.50
2019-02-20T13:38:52.553Z,0.47
2019-02-20T13:41:21.739Z,0.43
2019-02-20T13:43:50.897Z,0.50
2019-02-20T13:46:20.541Z,0.40
2019-02-20T13:48:49.714Z,0.50
2019-02-20T13:51:19.201Z,0.30
2019-02-20T13:53:49.827Z,0.40
2019-02-20T13:56:19.257Z,0.40
2019-02-20T13:58:48.465Z,0.50
2019-02-20T14:01:18.025Z,0.70
2019-02-20T14:03:47.488Z,0.60
2019-02-20T14:06:17.045Z,0.40
2019-02-20T14:08:46.250Z,0.60
2019-02-20T14:11:15.768Z,0.70
2019-02-20T14:13:45.336Z,0.43
2019-02-20T14:16:14.948Z,0.50
2019-02-20T14:18:44.216Z,0.43
2019-02-20T14:21:13.698Z,0.30
2019-02-20T14:23:43.270Z,0.50
2019-02-20T14:26:12.584Z,0.50
2019-02-20T14:28:42.045Z,0.40
2019-02-20T14:31:11.429Z,0.40
2019-02-20T14:33:40.648Z,0.50
2019-02-20T14:36:10.189Z,0.40
2019-02-20T14:38:39.407Z,0.40
2019-02-20T14:41:08.809Z,0.50
2019-02-20T14:43:37.994Z,0.37
2019-02-20T14:46:07.237Z,0.40
2019-02-20T14:48:36.389Z,0.40
2019-02-20T14:51:05.773Z,0.40
2019-02-20T14:53:34.915Z,0.40
2019-02-20T14:56:04.476Z,0.47
2019-02-20T14:58:33.730Z,0.67
2019-02-20T15:01:03.377Z,0.30
2019-02-20T15:03:32.510Z,0.57
2019-02-20T15:06:01.680Z,0.47
2019-02-20T15:08:30.766Z,0.60
2019-02-20T15:10:59.929Z,0.40
2019-02-20T15:13:29.003Z,0.53
2019-02-20T15:15:58.465Z,0.47
2019-02-20T15:18:27.573Z,0.70
2019-02-20T15:20:57.017Z,0.50
2019-02-20T15:23:26.543Z,0.50
2019-02-20T15:25:55.976Z,0.53
2019-02-20T15:28:25.087Z,0.30
2019-02-20T15:30:54.486Z,0.40
2019-02-20T15:33:24.027Z,0.40
2019-02-20T15:35:53.344Z,0.43
2019-02-20T15:38:22.437Z,0.60
2019-02-20T15:40:51.861Z,0.50
2019-02-20T15:43:21.203Z,0.50
2019-02-20T15:45:50.589Z,0.40
2019-02-20T15:48:23.275Z,0.40
2019-02-20T15:50:50.641Z,0.60
2019-02-20T15:53:19.931Z,0.40
2019-02-20T15:55:49.225Z,0.30
2019-02-20T15:58:19.014Z,0.50
2019-02-20T16:00:48.229Z,0.50
2019-02-20T16:03:17.485Z,0.63
2019-02-20T16:05:46.950Z,0.30
2019-02-20T16:08:16.083Z,0.33
2019-02-20T16:10:45.221Z,0.50
2019-02-20T16:13:14.335Z,0.57
2019-02-20T16:15:43.467Z,0.50
2019-02-20T16:18:12.685Z,0.57
2019-02-20T16:20:42.449Z,0.30
2019-02-20T16:23:11.540Z,0.70
2019-02-20T16:25:41.016Z,0.40
2019-02-20T16:28:10.862Z,0.37
2019-02-20T16:30:40.532Z,0.63
2019-02-20T16:33:11.114Z,0.60
2019-02-20T16:35:40.369Z,0.50
2019-02-20T16:38:09.440Z,0.50
2019-02-20T16:40:38.631Z,0.50
2019-02-20T16:43:08.065Z,0.40
2019-02-20T16:45:37.645Z,0.40
2019-02-20T16:48:06.741Z,0.40
2019-02-20T16:50:35.798Z,0.50
2019-02-20T16:53:04.963Z,0.50
2019-02-20T16:55:34.055Z,0.60
2019-02-20T16:58:03.996Z,0.30
2019-02-20T17:00:33.990Z,0.60
2019-02-20T17:03:03.307Z,0.40
2019-02-20T17:05:32.390Z,0.60
2019-02-20T17:08:01.468Z,0.57
2019-02-20T17:10:30.813Z,0.40
2019-02-20T17:13:00.307Z,0.40
2019-02-20T17:15:30.564Z,0.50
2019-02-20T17:17:59.628Z,0.50
2019-02-20T17:20:28.991Z,0.30
2019-02-20T17:22:58.183Z,0.53
2019-02-20T17:25:27.786Z,0.60
2019-02-20T17:28:05.300Z,0.43
2019-02-20T17:30:28.331Z,0.60
2019-02-20T17:32:58.271Z,0.60
2019-02-20T17:35:27.380Z,0.50
2019-02-20T17:37:56.504Z,0.33
2019-02-20T17:40:25.828Z,0.33
2019-02-20T17:42:55.464Z,0.50
2019-02-20T17:45:25.360Z,0.77
2019-02-20T17:47:54.452Z,0.30
2019-02-20T17:50:23.563Z,0.50
2019-02-20T17:52:53.087Z,0.60
2019-02-20T17:55:22.465Z,0.53
2019-02-20T17:57:51.583Z,0.60
2019-02-20T18:00:23.633Z,0.50
2019-02-20T18:02:52.703Z,0.50
2019-02-20T18:05:23.793Z,0.60
2019-02-20T18:07:52.622Z,0.60
2019-02-20T18:10:21.732Z,0.57
2019-02-20T18:12:51.105Z,0.40
2019-02-20T18:15:20.305Z,0.50
2019-02-20T18:17:49.626Z,0.50
2019-02-20T18:20:18.800Z,0.50
2019-02-20T18:22:48.197Z,0.40
2019-02-20T18:25:17.474Z,0.50
2019-02-20T18:27:47.183Z,0.67
2019-02-20T18:30:16.387Z,0.50
2019-02-20T18:32:45.871Z,0.50
2019-02-20T18:35:14.972Z,0.50
2019-02-20T18:37:44.065Z,0.60
2019-02-20T18:40:14.693Z,0.50
2019-02-20T18:42:43.796Z,0.50
2019-02-20T18:45:13.110Z,0.77
2019-02-20T18:47:42.212Z,0.60
2019-02-20T18:50:11.865Z,0.70
2019-02-20T18:52:40.912Z,0.60
2019-02-20T18:55:10.244Z,0.80
2019-02-20T18:57:39.626Z,0.53
2019-02-20T19:00:11.573Z,0.60
2019-02-20T19:02:40.654Z,0.50
2019-02-20T19:05:10.321Z,0.60
2019-02-20T19:07:39.418Z,0.60
2019-02-20T19:10:12.876Z,0.60
2019-02-20T19:13:23.644Z,0.70
2019-02-20T19:16:33.749Z,0.60
2019-02-20T19:19:25.974Z,0.70
2019-02-20T19:22:12.641Z,0.70
2019-02-20T19:25:27.445Z,0.60
2019-02-20T19:28:03.607Z,0.87
2019-02-20T19:31:15.328Z,0.60
2019-02-20T19:34:15.768Z,0.70
2019-02-20T19:37:14.870Z,0.70
2019-02-20T19:40:33.848Z,0.90
2019-02-20T19:43:43.144Z,1.03
2019-02-20T19:46:55.743Z,0.57
2019-02-20T19:50:07.077Z,0.80
2019-02-20T19:53:24.980Z,0.80
2019-02-20T19:56:24.940Z,0.60
2019-02-20T19:59:50.429Z,0.90
2019-02-20T20:02:52.503Z,0.50
2019-02-20T20:05:43.423Z,0.70
2019-02-20T20:08:23.062Z,0.53
2019-02-20T20:11:15.745Z,0.43
2019-02-20T20:13:55.041Z,0.60
2019-02-20T20:17:35.305Z,0.70
2019-02-20T20:20:10.954Z,0.67
2019-02-20T20:23:14.516Z,0.70
2019-02-20T20:26:24.910Z,0.43
2019-02-20T20:29:49.727Z,0.80
2019-02-20T20:33:09.311Z,0.70
2019-02-20T20:36:15.493Z,0.73
2019-02-20T20:39:33.244Z,0.77
2019-02-20T20:42:41.322Z,0.70
2019-02-20T20:45:40.629Z,0.80
2019-02-20T20:48:40.930Z,0.67
2019-02-20T20:51:58.715Z,0.83
2019-02-20T20:55:00.520Z,0.80
2019-02-20T20:57:51.115Z,0.70
2019-02-20T21:01:04.280Z,0.80
2019-02-20T21:03:35.086Z,0.57
2019-02-20T21:06:32.191Z,0.73
2019-02-20T21:09:14.137Z,0.60
2019-02-20T21:12:24.325Z,0.63
2019-02-20T21:15:32.134Z,1.10
2019-02-20T21:18:33.239Z,0.67
2019-02-20T21:21:46.125Z,1.03
2019-02-20T21:25:02.504Z,0.80
2019-02-20T21:28:08.690Z,0.87
2019-02-20T21:30:54.305Z,0.50
2019-02-20T21:33:59.775Z,0.50
2019-02-20T21:36:59.664Z,0.57
2019-02-20T21:39:56.188Z,0.80
2019-02-20T21:43:01.119Z,0.90
2019-02-20T21:45:52.945Z,0.80
2019-02-20T21:49:27.076Z,0.90
2019-02-20T21:52:38.872Z,0.63
2019-02-20T21:55:35.222Z,0.60
2019-02-20T21:58:40.101Z,0.90
2019-02-20T22:01:44.009Z,0.90
2019-02-20T22:04:36.452Z,0.87
2019-02-20T22:08:04.437Z,1.20
2019-02-20T22:11:45.202Z,1.30
2019-02-20T22:14:35.413Z,0.80
2019-02-20T22:17:45.680Z,0.97
2019-02-20T22:21:13.730Z,0.60
2019-02-20T22:23:53.920Z,0.90
2019-02-20T22:26:48.092Z,0.87
2019-02-20T22:29:56.033Z,0.90
2019-02-20T22:32:52.929Z,1.13
2019-02-20T22:35:59.097Z,0.97
2019-02-20T22:39:11.168Z,1.03
2019-02-20T22:42:09.798Z,1.10
2019-02-20T22:45:32.857Z,0.90
2019-02-20T22:48:54.580Z,1.20
2019-02-20T22:51:48.589Z,0.80
2019-02-20T22:55:03.831Z,1.03
2019-02-20T22:57:59.543Z,0.87
2019-02-20T23:01:20.809Z,0.83
2019-02-20T23:04:36.063Z,0.80
2019-02-20T23:07:30.563Z,0.80
2019-02-20T23:10:10.254Z,1.00
2019-02-20T23:13:29.199Z,1.13
2019-02-20T23:15:58.349Z,0.90
2019-02-20T23:18:27.400Z,0.70
2019-02-20T23:20:56.485Z,0.90
2019-02-20T23:23:26.198Z,0.87
2019-02-20T23:25:55.257Z,0.97
2019-02-20T23:28:24.283Z,0.60
2019-02-20T23:30:53.337Z,0.70
2019-02-20T23:33:22.461Z,1.10
2019-02-20T23:35:51.559Z,1.00
2019-02-20T23:38:20.622Z,1.10
2019-02-20T23:40:49.693Z,0.87
2019-02-20T23:43:18.708Z,0.80
2019-02-20T23:45:47.798Z,0.80
2019-02-20T23:48:17.326Z,0.70
2019-02-20T23:50:46.444Z,0.60
2019-02-20T23:53:15.453Z,0.70
2019-02-20T23:55:44.553Z,0.60
2019-02-20T23:58:13.592Z,0.73
